This is the latest recevied weather packets stored in our database for station/object SQ7KHZ-10. If no packets are shown the sender has not sent any weather packets the latest 10 day(s).
| Time | Temp. | Humidity | Pressure | Rain* | Wind** | Luminosity | Snow |
|---|---|---|---|---|---|---|---|
| 1777680390 | 5° C | 86% | 1024.8 hPa | 0 mm | - | - | - |
| 1777679178 | 5° C | 86% | 1024.8 hPa | 0 mm | - | - | - |
| 1777677978 | 5.56° C | 85% | 1024.9 hPa | 0 mm | - | - | - |
| 1777676766 | 6.11° C | 84% | 1025 hPa | 0 mm | - | - | - |
| 1777675566 | 6.11° C | 83% | 1024.9 hPa | 0 mm | - | - | - |
| 1777674376 | 6.67° C | 82% | 1024.8 hPa | 0 mm | - | - | - |
| 1777673142 | 7.78° C | 79% | 1024.8 hPa | 0 mm | - | - | - |
| 1777671943 | 8.33° C | 76% | 1024.8 hPa | 0 mm | - | - | - |
| 1777670730 | 8.89° C | 74% | 1024.8 hPa | 0 mm | - | - | - |
| 1777669530 | 8.89° C | 74% | 1024.8 hPa | 0 mm | - | - | - |
| 1777668318 | 9.44° C | 72% | 1024.8 hPa | 0 mm | - | - | - |
| 1777667118 | 10° C | 70% | 1024.7 hPa | 0 mm | - | - | - |
| 1777665906 | 10.56° C | 68% | 1024.8 hPa | 0 mm | - | - | - |
| 1777664705 | 11.11° C | 67% | 1024.8 hPa | 0 mm | - | - | - |
| 1777663493 | 11.67° C | 66% | 1024.7 hPa | 0 mm | - | - | - |
| 1777662293 | 12.22° C | 66% | 1024.6 hPa | 0 mm | - | - | - |
| 1777661081 | 13.33° C | 60% | 1024.5 hPa | 0 mm | - | - | - |
| 1777659881 | 13.33° C | 59% | 1024.4 hPa | 0 mm | - | - | - |
| 1777658669 | 13.89° C | 60% | 1024.2 hPa | 0 mm | - | - | - |
| 1777657457 | 15° C | 59% | 1024.2 hPa | 0 mm | - | - | - |
| 1777656246 | 15.56° C | 56% | 1024 hPa | 0 mm | - | - | - |
| 1777655044 | 16.67° C | 53% | 1023.9 hPa | 0 mm | - | - | - |
| 1777653818 | 18.33° C | 46% | 1023.9 hPa | 0 mm | - | - | - |
| 1777652608 | 18.89° C | 43% | 1023.9 hPa | 0 mm | - | - | - |
| 1777651373 | 19.44° C | 43% | 1024 hPa | 0 mm | - | - | - |
* Rain latest hour (hover to see other rain measurements)
** Current wind speed in m/s (hover to see current wind gust speed)